createdAt,value
2023-01-12T00:01:17.414Z,8.42
2023-01-12T00:03:47.271Z,8.34
2023-01-12T00:06:17.201Z,8.30
2023-01-12T00:08:46.990Z,8.24
2023-01-12T00:11:17.120Z,8.22
2023-01-12T00:13:47.084Z,8.19
2023-01-12T00:16:34.640Z,8.16
2023-01-12T00:19:05.352Z,8.15
2023-01-12T00:21:50.222Z,8.18
2023-01-12T00:24:20.286Z,8.17
2023-01-12T00:26:51.426Z,8.16
2023-01-12T00:29:21.531Z,8.18
2023-01-12T00:31:54.256Z,8.19
2023-01-12T00:34:24.258Z,8.20
2023-01-12T00:36:54.563Z,8.23
2023-01-12T00:39:25.162Z,8.23
2023-01-12T00:42:18.955Z,8.24
2023-01-12T00:45:01.141Z,8.26
2023-01-12T00:47:33.635Z,8.26
2023-01-12T00:50:03.575Z,8.24
2023-01-12T00:52:33.425Z,8.23
2023-01-12T00:55:03.223Z,8.24
2023-01-12T00:57:33.127Z,8.24
2023-01-12T01:00:02.985Z,8.27
2023-01-12T01:02:36.276Z,8.31
2023-01-12T01:05:06.165Z,8.34
2023-01-12T01:07:36.172Z,8.40
2023-01-12T01:10:05.982Z,8.42
2023-01-12T01:12:36.170Z,8.44
2023-01-12T01:15:06.415Z,8.46
2023-01-12T01:17:38.835Z,8.49
2023-01-12T01:20:09.496Z,8.49
2023-01-12T01:22:39.497Z,8.50
2023-01-12T01:25:10.308Z,8.51
2023-01-12T01:27:40.316Z,8.51
2023-01-12T01:30:11.694Z,8.51
2023-01-12T01:32:44.204Z,8.54
2023-01-12T01:35:13.973Z,8.55
2023-01-12T01:37:43.686Z,8.56
2023-01-12T01:40:15.009Z,8.58
2023-01-12T01:42:44.736Z,8.59
2023-01-12T01:45:16.992Z,8.59
2023-01-12T01:47:52.206Z,8.60
2023-01-12T01:50:26.734Z,8.60
2023-01-12T01:53:01.061Z,8.62
2023-01-12T01:55:36.602Z,8.63
2023-01-12T01:58:10.792Z,8.64
2023-01-12T02:00:42.277Z,8.66
2023-01-12T02:03:16.139Z,8.68
2023-01-12T02:05:48.617Z,8.70
2023-01-12T02:08:29.193Z,8.71
2023-01-12T02:11:01.655Z,8.73
2023-01-12T02:13:45.586Z,8.73
2023-01-12T02:16:24.354Z,8.73
2023-01-12T02:19:24.626Z,8.74
2023-01-12T02:22:21.218Z,8.75
2023-01-12T02:25:15.451Z,8.79
2023-01-12T02:28:03.731Z,8.80
2023-01-12T02:31:07.481Z,8.84
2023-01-12T02:33:51.511Z,8.86
2023-01-12T02:36:31.752Z,8.87
2023-01-12T02:39:08.551Z,8.89
2023-01-12T02:41:56.567Z,8.86
2023-01-12T02:44:36.006Z,8.88
2023-01-12T02:47:10.044Z,8.88
2023-01-12T02:49:47.684Z,8.89
2023-01-12T02:52:20.264Z,8.90
2023-01-12T02:54:52.215Z,8.91
2023-01-12T02:57:25.061Z,8.92
2023-01-12T02:59:57.249Z,8.93
2023-01-12T03:02:29.223Z,8.93
2023-01-12T03:05:01.662Z,8.93
2023-01-12T03:07:48.601Z,8.94
2023-01-12T03:10:45.487Z,8.94
2023-01-12T03:13:19.038Z,8.95
2023-01-12T03:15:53.117Z,8.97
2023-01-12T03:18:30.361Z,8.98
2023-01-12T03:21:08.246Z,9.00
2023-01-12T03:23:43.357Z,9.03
2023-01-12T03:26:14.601Z,9.05
2023-01-12T03:28:49.430Z,9.10
2023-01-12T03:31:19.338Z,9.13
2023-01-12T03:33:49.409Z,9.17
2023-01-12T03:36:28.870Z,9.18
2023-01-12T03:39:09.087Z,9.19
2023-01-12T03:41:49.545Z,9.22
2023-01-12T03:44:23.837Z,9.22
2023-01-12T03:46:58.926Z,9.23
2023-01-12T03:49:36.054Z,9.24
2023-01-12T03:52:12.914Z,9.26
2023-01-12T03:54:46.732Z,9.25
2023-01-12T03:57:17.162Z,9.27
2023-01-12T03:59:47.032Z,9.26
2023-01-12T04:02:16.975Z,9.26
2023-01-12T04:04:46.711Z,9.28
2023-01-12T04:07:19.147Z,9.28
2023-01-12T04:09:48.949Z,9.29
2023-01-12T04:12:18.730Z,9.30
2023-01-12T04:14:49.966Z,9.30
2023-01-12T04:17:24.300Z,9.28
2023-01-12T04:19:54.598Z,9.28
2023-01-12T04:22:42.213Z,9.28
2023-01-12T04:25:12.915Z,9.27
2023-01-12T04:27:49.423Z,9.30
2023-01-12T04:30:23.614Z,9.29
2023-01-12T04:32:53.938Z,9.29
2023-01-12T04:35:24.333Z,9.31
2023-01-12T04:37:57.339Z,9.27
2023-01-12T04:40:27.275Z,9.26
2023-01-12T04:43:07.900Z,9.24
2023-01-12T04:45:41.707Z,9.22
2023-01-12T04:48:13.916Z,9.21
2023-01-12T04:50:45.185Z,9.22
2023-01-12T04:53:17.616Z,9.24
2023-01-12T04:55:47.510Z,9.25
2023-01-12T04:58:17.278Z,9.26
2023-01-12T05:00:47.454Z,9.27
2023-01-12T05:03:18.259Z,9.29
2023-01-12T05:05:48.146Z,9.27
2023-01-12T05:08:32.991Z,9.28
2023-01-12T05:11:04.105Z,9.27
2023-01-12T05:13:35.198Z,9.27
2023-01-12T05:16:13.096Z,9.27
2023-01-12T05:18:42.910Z,9.25
2023-01-12T05:21:12.643Z,9.26
2023-01-12T05:23:45.058Z,9.24
2023-01-12T05:26:16.039Z,9.23
2023-01-12T05:28:46.106Z,9.25
2023-01-12T05:31:16.914Z,9.23
2023-01-12T05:33:46.920Z,9.23
2023-01-12T05:36:18.868Z,9.24
2023-01-12T05:38:51.344Z,9.22
2023-01-12T05:41:23.114Z,9.21
2023-01-12T05:43:55.049Z,9.19
2023-01-12T05:46:27.066Z,9.19
2023-01-12T05:48:59.236Z,9.17
2023-01-12T05:51:31.078Z,9.18
2023-01-12T05:54:03.707Z,9.17
2023-01-12T05:56:34.296Z,9.18
2023-01-12T05:59:05.782Z,9.18
2023-01-12T06:01:36.408Z,9.18
2023-01-12T06:04:06.373Z,9.19
2023-01-12T06:06:36.146Z,9.20
2023-01-12T06:09:08.912Z,9.22
2023-01-12T06:11:51.066Z,9.20
2023-01-12T06:14:20.790Z,9.21
2023-01-12T06:16:50.523Z,9.22
2023-01-12T06:19:20.275Z,9.20
2023-01-12T06:21:50.083Z,9.20
2023-01-12T06:24:22.442Z,9.20
2023-01-12T06:26:52.218Z,9.21
2023-01-12T06:29:21.963Z,9.23
2023-01-12T06:31:51.726Z,9.22
2023-01-12T06:34:21.791Z,9.25
2023-01-12T06:36:52.319Z,9.26
2023-01-12T06:39:24.704Z,9.28
2023-01-12T06:42:07.127Z,9.28
2023-01-12T06:44:36.948Z,9.33
2023-01-12T06:47:06.988Z,9.37
2023-01-12T06:49:36.865Z,9.39
2023-01-12T06:52:06.897Z,9.44
2023-01-12T06:54:39.462Z,9.48
2023-01-12T06:57:09.232Z,9.51
2023-01-12T06:59:39.138Z,9.56
2023-01-12T07:02:09.128Z,9.60
2023-01-12T07:04:39.041Z,9.63
2023-01-12T07:07:09.073Z,9.68
2023-01-12T07:09:41.567Z,9.73
2023-01-12T07:12:11.432Z,9.77
2023-01-12T07:14:41.214Z,9.84
2023-01-12T07:17:12.746Z,9.89
2023-01-12T07:19:43.508Z,9.95
2023-01-12T07:22:13.410Z,10.00
2023-01-12T07:24:45.832Z,10.07
2023-01-12T07:27:15.657Z,10.13
2023-01-12T07:29:46.759Z,10.21
2023-01-12T07:32:16.540Z,10.28
2023-01-12T07:34:46.735Z,10.32
2023-01-12T07:37:16.538Z,10.36
2023-01-12T07:39:48.911Z,10.42
2023-01-12T07:42:27.810Z,10.45
2023-01-12T07:44:57.971Z,10.49
2023-01-12T07:47:28.199Z,10.52
2023-01-12T07:49:57.951Z,10.55
2023-01-12T07:52:27.738Z,10.56
2023-01-12T07:55:00.117Z,10.60
2023-01-12T07:57:29.886Z,10.60
2023-01-12T07:59:59.595Z,10.63
2023-01-12T08:02:29.346Z,10.63
2023-01-12T08:04:59.086Z,10.66
2023-01-12T08:07:29.100Z,10.65
2023-01-12T08:10:01.689Z,10.69
2023-01-12T08:12:33.062Z,10.70
2023-01-12T08:15:04.540Z,10.72
2023-01-12T08:17:39.082Z,10.75
2023-01-12T08:20:14.969Z,10.78
2023-01-12T08:22:49.145Z,10.79
2023-01-12T08:25:26.873Z,10.83
2023-01-12T08:28:02.053Z,10.83
2023-01-12T08:30:32.683Z,10.87
2023-01-12T08:33:04.427Z,10.89
2023-01-12T08:35:37.368Z,10.93
2023-01-12T08:38:07.131Z,10.93
2023-01-12T08:40:51.884Z,10.94
2023-01-12T08:43:41.605Z,10.94
2023-01-12T08:46:11.481Z,10.95
2023-01-12T08:48:41.802Z,10.97
2023-01-12T08:51:11.895Z,10.98
2023-01-12T08:53:41.636Z,11.01
2023-01-12T08:56:14.136Z,11.02
2023-01-12T08:58:44.090Z,11.04
2023-01-12T09:01:16.837Z,11.07
2023-01-12T09:03:47.391Z,11.09
2023-01-12T09:06:19.723Z,11.09
2023-01-12T09:08:49.941Z,11.11
2023-01-12T09:11:22.443Z,11.13
2023-01-12T09:13:52.592Z,11.14
2023-01-12T09:16:23.120Z,11.15
2023-01-12T09:18:53.215Z,11.16
2023-01-12T09:21:25.657Z,11.17
2023-01-12T09:23:55.747Z,11.19
2023-01-12T09:26:32.193Z,11.19
2023-01-12T09:29:02.837Z,11.19
2023-01-12T09:31:35.183Z,11.19
2023-01-12T09:34:07.924Z,11.20
2023-01-12T09:36:39.805Z,11.22
2023-01-12T09:39:18.680Z,11.25
2023-01-12T09:42:14.002Z,11.29
2023-01-12T09:44:58.000Z,11.30
2023-01-12T09:47:33.615Z,11.32
2023-01-12T09:50:09.722Z,11.31
2023-01-12T09:52:43.766Z,11.31
2023-01-12T09:55:18.302Z,11.27
2023-01-12T09:58:18.440Z,11.29
2023-01-12T10:00:53.372Z,11.29
2023-01-12T10:03:31.133Z,11.29
2023-01-12T10:06:03.085Z,11.31
2023-01-12T10:08:37.639Z,11.34
2023-01-12T10:11:13.890Z,11.36
2023-01-12T10:14:16.519Z,11.38
2023-01-12T10:17:01.690Z,11.37
2023-01-12T10:19:37.759Z,11.37
2023-01-12T10:22:37.084Z,11.39
2023-01-12T10:25:28.092Z,11.40
2023-01-12T10:27:59.729Z,11.42
2023-01-12T10:30:33.723Z,11.42
2023-01-12T10:33:15.125Z,11.46
2023-01-12T10:35:56.118Z,11.49
2023-01-12T10:38:29.341Z,11.50
2023-01-12T10:41:14.630Z,11.52
2023-01-12T10:43:46.051Z,11.55
2023-01-12T10:46:18.867Z,11.57
2023-01-12T10:48:55.496Z,11.58
2023-01-12T10:51:29.481Z,11.60
2023-01-12T10:54:03.381Z,11.63
2023-01-12T10:56:39.418Z,11.62
2023-01-12T10:59:21.545Z,11.62
2023-01-12T11:01:54.264Z,11.59
2023-01-12T11:04:31.093Z,11.58
2023-01-12T11:07:05.459Z,11.57
2023-01-12T11:09:35.491Z,11.55
2023-01-12T11:12:07.010Z,11.58
2023-01-12T11:14:39.296Z,11.57
2023-01-12T11:17:27.945Z,11.59
2023-01-12T11:20:03.904Z,11.55
2023-01-12T11:22:38.180Z,11.51
2023-01-12T11:25:15.174Z,11.47
2023-01-12T11:27:49.624Z,11.43
2023-01-12T11:30:24.560Z,11.39
2023-01-12T11:33:00.489Z,11.36
2023-01-12T11:35:38.915Z,11.34
2023-01-12T11:38:14.642Z,11.35
2023-01-12T11:40:47.034Z,11.36
2023-01-12T11:43:46.735Z,11.40
2023-01-12T11:46:25.075Z,11.41
2023-01-12T11:49:02.750Z,11.41
2023-01-12T11:51:35.175Z,11.42
2023-01-12T11:54:04.989Z,11.42
2023-01-12T11:56:59.472Z,11.40
2023-01-12T11:59:35.385Z,11.38
2023-01-12T12:02:22.145Z,11.38
2023-01-12T12:05:04.387Z,11.39
2023-01-12T12:07:50.063Z,11.38
2023-01-12T12:10:26.067Z,11.36
2023-01-12T12:13:17.647Z,11.39
2023-01-12T12:15:57.077Z,11.40
2023-01-12T12:18:41.207Z,11.39
2023-01-12T12:21:24.042Z,11.42
2023-01-12T12:24:08.159Z,11.45
2023-01-12T12:26:41.349Z,11.48
2023-01-12T12:29:30.411Z,11.56
2023-01-12T12:32:10.587Z,11.60
2023-01-12T12:35:03.767Z,11.70
2023-01-12T12:37:50.075Z,11.73
2023-01-12T12:40:59.129Z,11.77
2023-01-12T12:43:45.938Z,11.79
2023-01-12T12:46:27.144Z,11.80
2023-01-12T12:49:05.087Z,11.82
2023-01-12T12:51:38.053Z,11.83
2023-01-12T12:54:10.014Z,11.85
2023-01-12T12:56:42.434Z,11.84
2023-01-12T13:00:01.111Z,11.85
2023-01-12T13:02:37.130Z,11.87
2023-01-12T13:05:12.590Z,11.85
2023-01-12T13:07:53.494Z,11.89
2023-01-12T13:10:33.718Z,11.89
2023-01-12T13:13:27.426Z,11.91
2023-01-12T13:16:27.687Z,11.91
2023-01-12T13:19:09.917Z,11.90
2023-01-12T13:21:58.050Z,11.89
2023-01-12T13:24:30.739Z,11.90
2023-01-12T13:27:01.992Z,11.89
2023-01-12T13:29:45.348Z,11.91
2023-01-12T13:32:44.035Z,11.92
2023-01-12T13:35:30.119Z,11.95
2023-01-12T13:38:07.028Z,11.95
2023-01-12T13:40:36.922Z,11.94
2023-01-12T13:43:17.087Z,11.96
2023-01-12T13:45:55.926Z,11.95
2023-01-12T13:48:27.247Z,11.94
2023-01-12T13:51:01.414Z,11.94
2023-01-12T13:53:32.804Z,11.94
2023-01-12T13:56:04.354Z,11.93
2023-01-12T13:58:42.129Z,11.92
2023-01-12T14:01:21.711Z,11.94
2023-01-12T14:04:12.165Z,11.93
2023-01-12T14:06:51.762Z,11.94
2023-01-12T14:09:30.015Z,11.95
2023-01-12T14:12:23.469Z,11.95
2023-01-12T14:15:35.481Z,11.95
2023-01-12T14:18:10.758Z,11.94
2023-01-12T14:20:48.626Z,11.95
2023-01-12T14:23:22.274Z,11.95
2023-01-12T14:26:16.720Z,11.97
2023-01-12T14:28:48.384Z,11.96
2023-01-12T14:31:23.943Z,11.98
2023-01-12T14:33:58.689Z,11.99
2023-01-12T14:36:31.717Z,11.99
2023-01-12T14:39:03.000Z,12.00
2023-01-12T14:41:45.743Z,12.00
2023-01-12T14:44:34.589Z,11.99
2023-01-12T14:47:04.757Z,11.97
2023-01-12T14:49:38.562Z,11.96
2023-01-12T14:52:26.312Z,11.95
2023-01-12T14:54:56.356Z,11.92
2023-01-12T14:57:34.240Z,11.91
2023-01-12T15:00:06.106Z,11.91
2023-01-12T15:02:38.453Z,11.88
2023-01-12T15:05:23.358Z,11.86
2023-01-12T15:07:59.541Z,11.84
2023-01-12T15:10:32.967Z,11.82
2023-01-12T15:13:24.846Z,11.79
2023-01-12T15:16:07.952Z,11.74
2023-01-12T15:18:51.535Z,11.73
2023-01-12T15:21:37.635Z,11.70
2023-01-12T15:24:32.828Z,11.69
2023-01-12T15:27:06.762Z,11.65
2023-01-12T15:29:36.830Z,11.63
2023-01-12T15:32:08.274Z,11.61
2023-01-12T15:34:38.114Z,11.61
2023-01-12T15:37:11.970Z,11.59
2023-01-12T15:39:41.746Z,11.57
2023-01-12T15:42:22.204Z,11.55
2023-01-12T15:44:53.941Z,11.52
2023-01-12T15:47:24.242Z,11.52
2023-01-12T15:49:54.192Z,11.51
2023-01-12T15:52:28.532Z,11.50
2023-01-12T15:54:59.097Z,11.50
2023-01-12T15:57:29.017Z,11.46
2023-01-12T15:59:58.851Z,11.47
2023-01-12T16:02:34.579Z,11.49
2023-01-12T16:05:04.913Z,11.48
2023-01-12T16:07:37.517Z,11.50
2023-01-12T16:10:11.583Z,11.50
2023-01-12T16:12:41.614Z,11.51
2023-01-12T16:15:18.545Z,11.52
2023-01-12T16:17:48.859Z,11.50
2023-01-12T16:20:19.763Z,11.48
2023-01-12T16:22:52.239Z,11.48
2023-01-12T16:25:22.577Z,11.49
2023-01-12T16:27:52.495Z,11.49
2023-01-12T16:30:22.615Z,11.47
2023-01-12T16:32:52.446Z,11.47
2023-01-12T16:35:22.303Z,11.45
2023-01-12T16:37:56.541Z,11.45
2023-01-12T16:40:26.351Z,11.43
2023-01-12T16:42:56.143Z,11.42
2023-01-12T16:45:26.012Z,11.42
2023-01-12T16:47:58.897Z,11.42
2023-01-12T16:50:29.049Z,11.40
2023-01-12T16:53:01.518Z,11.38
2023-01-12T16:55:33.092Z,11.39
2023-01-12T16:58:02.941Z,11.38
2023-01-12T17:00:32.816Z,11.38
2023-01-12T17:03:04.481Z,11.36
2023-01-12T17:05:34.845Z,11.36
2023-01-12T17:08:08.113Z,11.36
2023-01-12T17:10:38.135Z,11.35
2023-01-12T17:13:08.143Z,11.36
2023-01-12T17:15:38.253Z,11.35
2023-01-12T17:18:08.160Z,11.35
2023-01-12T17:20:43.762Z,11.35
2023-01-12T17:23:16.439Z,11.36
2023-01-12T17:25:46.498Z,11.36
2023-01-12T17:28:16.683Z,11.35
2023-01-12T17:30:46.767Z,11.35
2023-01-12T17:33:17.129Z,11.35
2023-01-12T17:35:46.989Z,11.34
2023-01-12T17:38:19.626Z,11.35
2023-01-12T17:40:49.484Z,11.35
2023-01-12T17:43:17.106Z,11.37
2023-01-12T17:45:47.036Z,11.36
2023-01-12T17:48:19.688Z,11.37
2023-01-12T17:50:49.778Z,11.39
2023-01-12T17:53:22.174Z,11.38
2023-01-12T17:55:53.182Z,11.38
2023-01-12T17:58:23.259Z,11.38
2023-01-12T18:00:53.060Z,11.39
2023-01-12T18:03:23.836Z,11.39
2023-01-12T18:06:04.574Z,11.40
2023-01-12T18:08:39.603Z,11.40
2023-01-12T18:11:11.408Z,11.39
2023-01-12T18:13:42.700Z,11.41
2023-01-12T18:16:14.445Z,11.42
2023-01-12T18:18:45.330Z,11.40
2023-01-12T18:21:17.609Z,11.41
2023-01-12T18:23:51.257Z,11.43
2023-01-12T18:26:25.026Z,11.42
2023-01-12T18:28:55.509Z,11.46
2023-01-12T18:31:27.468Z,11.48
2023-01-12T18:34:02.220Z,11.50
2023-01-12T18:36:32.174Z,11.52
2023-01-12T18:39:05.374Z,11.53
2023-01-12T18:41:47.578Z,11.54
2023-01-12T18:44:17.461Z,11.53
2023-01-12T18:46:59.902Z,11.56
2023-01-12T18:49:31.459Z,11.56
2023-01-12T18:52:14.487Z,11.53
2023-01-12T18:54:52.113Z,11.55
2023-01-12T18:57:23.976Z,11.54
2023-01-12T18:59:55.907Z,11.54
2023-01-12T19:02:27.973Z,11.56
2023-01-12T19:05:16.154Z,11.55
2023-01-12T19:07:58.509Z,11.54
2023-01-12T19:10:32.740Z,11.56
2023-01-12T19:13:14.954Z,11.55
2023-01-12T19:15:57.419Z,11.56
2023-01-12T19:18:27.319Z,11.57
2023-01-12T19:21:17.609Z,11.53
2023-01-12T19:23:59.866Z,11.54
2023-01-12T19:26:45.525Z,11.54
2023-01-12T19:29:15.363Z,11.54
2023-01-12T19:31:45.863Z,11.53
2023-01-12T19:34:15.869Z,11.53
2023-01-12T19:36:46.374Z,11.53
2023-01-12T19:39:27.881Z,11.54
2023-01-12T19:42:15.983Z,11.51
2023-01-12T19:44:47.841Z,11.52
2023-01-12T19:47:20.653Z,11.52
2023-01-12T19:49:58.278Z,11.51
2023-01-12T19:52:28.483Z,11.54
2023-01-12T19:54:59.972Z,11.53
2023-01-12T19:57:32.762Z,11.51
2023-01-12T20:00:14.271Z,11.48
2023-01-12T20:02:46.629Z,11.48
2023-01-12T20:05:22.986Z,11.49
2023-01-12T20:07:54.402Z,11.52
2023-01-12T20:10:25.353Z,11.53
2023-01-12T20:13:20.103Z,11.54
2023-01-12T20:15:53.440Z,11.52
2023-01-12T20:18:23.702Z,11.52
2023-01-12T20:20:53.502Z,11.52
2023-01-12T20:23:23.316Z,11.55
2023-01-12T20:25:53.282Z,11.54
2023-01-12T20:28:25.773Z,11.54
2023-01-12T20:30:56.629Z,11.54
2023-01-12T20:33:28.507Z,11.54
2023-01-12T20:35:58.503Z,11.54
2023-01-12T20:38:28.244Z,11.50
2023-01-12T20:40:58.232Z,11.49
2023-01-12T20:43:30.601Z,11.49
2023-01-12T20:46:00.386Z,11.48
2023-01-12T20:48:30.165Z,11.50
2023-01-12T20:51:01.275Z,11.50
2023-01-12T20:53:31.685Z,11.47
2023-01-12T20:56:01.493Z,11.45
2023-01-12T20:58:34.470Z,11.46
2023-01-12T21:01:04.792Z,11.46
2023-01-12T21:03:34.652Z,11.44
2023-01-12T21:06:04.739Z,11.44
2023-01-12T21:08:34.666Z,11.46
2023-01-12T21:11:04.495Z,11.46
2023-01-12T21:13:37.814Z,11.47
2023-01-12T21:16:12.612Z,11.46
2023-01-12T21:18:43.206Z,11.43
2023-01-12T21:21:14.186Z,11.42
2023-01-12T21:23:46.434Z,11.41
2023-01-12T21:26:16.942Z,11.40
2023-01-12T21:28:52.575Z,11.39
2023-01-12T21:31:22.527Z,11.39
2023-01-12T21:33:52.470Z,11.36
2023-01-12T21:36:23.541Z,11.35
2023-01-12T21:38:53.944Z,11.30
2023-01-12T21:41:26.485Z,11.26
2023-01-12T21:43:58.844Z,11.24
2023-01-12T21:46:31.636Z,11.24
2023-01-12T21:49:07.171Z,11.21
2023-01-12T21:51:37.337Z,11.17
2023-01-12T21:54:07.351Z,11.14
2023-01-12T21:56:37.160Z,11.10
2023-01-12T21:59:09.582Z,11.10
2023-01-12T22:01:41.259Z,11.06
2023-01-12T22:04:11.368Z,11.03
2023-01-12T22:06:41.424Z,11.00
2023-01-12T22:09:11.487Z,10.95
2023-01-12T22:11:41.360Z,10.94
2023-01-12T22:14:13.982Z,10.91
2023-01-12T22:16:43.863Z,10.88
2023-01-12T22:19:13.784Z,10.85
2023-01-12T22:21:44.362Z,10.82
2023-01-12T22:24:14.120Z,10.80
2023-01-12T22:26:43.963Z,10.78
2023-01-12T22:29:16.459Z,10.75
2023-01-12T22:31:46.244Z,10.72
2023-01-12T22:34:16.113Z,10.72
2023-01-12T22:36:45.877Z,10.71
2023-01-12T22:39:16.392Z,10.70
2023-01-12T22:41:47.501Z,10.69
2023-01-12T22:44:19.950Z,10.68
2023-01-12T22:46:49.734Z,10.68
2023-01-12T22:49:19.563Z,10.71
2023-01-12T22:51:49.430Z,10.69
2023-01-12T22:54:19.511Z,10.69
2023-01-12T22:56:49.324Z,10.65
2023-01-12T22:59:21.931Z,10.65
2023-01-12T23:01:51.834Z,10.60
2023-01-12T23:04:21.733Z,10.58
2023-01-12T23:06:51.669Z,10.55
2023-01-12T23:09:21.567Z,10.52
2023-01-12T23:11:51.420Z,10.50
2023-01-12T23:14:23.942Z,10.46
2023-01-12T23:16:53.790Z,10.42
2023-01-12T23:19:23.624Z,10.37
2023-01-12T23:21:53.532Z,10.34
2023-01-12T23:24:23.418Z,10.31
2023-01-12T23:26:53.353Z,10.28
2023-01-12T23:29:25.828Z,10.24
2023-01-12T23:31:55.706Z,10.19
2023-01-12T23:34:25.583Z,10.17
2023-01-12T23:36:55.442Z,10.17
2023-01-12T23:39:25.389Z,10.12
2023-01-12T23:41:55.348Z,10.10
2023-01-12T23:44:27.847Z,10.08
2023-01-12T23:46:57.762Z,10.03
2023-01-12T23:49:27.595Z,10.02
2023-01-12T23:51:57.409Z,9.99
2023-01-12T23:54:27.546Z,9.92
2023-01-12T23:56:57.530Z,9.88
2023-01-12T23:59:30.180Z,9.82
